sensor_id;sensor_type;location;lat;lon;timestamp;P1;durP1;ratioP1;P2;durP2;ratioP2
57593;SDS011;43423;46.510;6.686;2022-12-18T00:01:49;49.00;;;15.48;;
57593;SDS011;43423;46.510;6.686;2022-12-18T00:04:16;44.00;;;15.57;;
57593;SDS011;43423;46.510;6.686;2022-12-18T00:09:12;47.67;;;15.90;;
57593;SDS011;43423;46.510;6.686;2022-12-18T00:11:37;40.80;;;15.23;;
57593;SDS011;43423;46.510;6.686;2022-12-18T00:14:03;46.50;;;15.65;;
57593;SDS011;43423;46.510;6.686;2022-12-18T00:16:28;61.83;;;18.97;;
57593;SDS011;43423;46.510;6.686;2022-12-18T00:19:00;53.65;;;18.83;;
57593;SDS011;43423;46.510;6.686;2022-12-18T00:21:27;59.78;;;19.25;;
57593;SDS011;43423;46.510;6.686;2022-12-18T00:23:55;51.30;;;17.90;;
57593;SDS011;43423;46.510;6.686;2022-12-18T00:26:25;52.22;;;19.08;;
57593;SDS011;43423;46.510;6.686;2022-12-18T00:28:53;57.33;;;19.27;;
57593;SDS011;43423;46.510;6.686;2022-12-18T00:31:21;54.55;;;19.23;;
57593;SDS011;43423;46.510;6.686;2022-12-18T00:33:49;58.95;;;18.23;;
57593;SDS011;43423;46.510;6.686;2022-12-18T00:36:16;49.40;;;17.45;;
57593;SDS011;43423;46.510;6.686;2022-12-18T00:38:44;56.25;;;19.15;;
57593;SDS011;43423;46.510;6.686;2022-12-18T00:41:11;52.42;;;19.08;;
57593;SDS011;43423;46.510;6.686;2022-12-18T00:43:38;56.30;;;19.23;;
57593;SDS011;43423;46.510;6.686;2022-12-18T00:46:04;53.83;;;18.05;;
57593;SDS011;43423;46.510;6.686;2022-12-18T00:48:30;56.97;;;18.85;;
57593;SDS011;43423;46.510;6.686;2022-12-18T00:50:56;53.28;;;17.80;;
57593;SDS011;43423;46.510;6.686;2022-12-18T00:53:22;51.67;;;19.55;;
57593;SDS011;43423;46.510;6.686;2022-12-18T00:55:47;57.28;;;19.35;;
57593;SDS011;43423;46.510;6.686;2022-12-18T00:58:14;55.70;;;19.42;;
57593;SDS011;43423;46.510;6.686;2022-12-18T01:00:41;54.67;;;19.08;;
57593;SDS011;43423;46.510;6.686;2022-12-18T01:03:09;47.72;;;16.40;;
57593;SDS011;43423;46.510;6.686;2022-12-18T01:05:39;57.40;;;18.80;;
57593;SDS011;43423;46.510;6.686;2022-12-18T01:08:05;52.40;;;18.73;;
57593;SDS011;43423;46.510;6.686;2022-12-18T01:10:31;47.13;;;17.60;;
57593;SDS011;43423;46.510;6.686;2022-12-18T01:12:56;53.50;;;19.35;;
57593;SDS011;43423;46.510;6.686;2022-12-18T01:15:22;49.40;;;18.88;;
57593;SDS011;43423;46.510;6.686;2022-12-18T01:17:47;49.83;;;17.23;;
57593;SDS011;43423;46.510;6.686;2022-12-18T01:20:13;52.85;;;18.75;;
57593;SDS011;43423;46.510;6.686;2022-12-18T01:22:39;47.70;;;17.52;;
57593;SDS011;43423;46.510;6.686;2022-12-18T01:25:04;51.10;;;17.05;;
57593;SDS011;43423;46.510;6.686;2022-12-18T01:27:31;52.95;;;17.88;;
57593;SDS011;43423;46.510;6.686;2022-12-18T01:29:57;46.47;;;18.13;;
57593;SDS011;43423;46.510;6.686;2022-12-18T01:32:23;61.50;;;18.48;;
57593;SDS011;43423;46.510;6.686;2022-12-18T01:34:49;56.72;;;18.33;;
57593;SDS011;43423;46.510;6.686;2022-12-18T01:37:14;49.92;;;17.33;;
57593;SDS011;43423;46.510;6.686;2022-12-18T01:39:40;52.90;;;18.02;;
57593;SDS011;43423;46.510;6.686;2022-12-18T01:42:10;53.08;;;18.17;;
57593;SDS011;43423;46.510;6.686;2022-12-18T01:50:10;56.13;;;18.80;;
57593;SDS011;43423;46.510;6.686;2022-12-18T01:52:38;49.35;;;18.60;;
57593;SDS011;43423;46.510;6.686;2022-12-18T01:55:06;51.45;;;18.58;;
57593;SDS011;43423;46.510;6.686;2022-12-18T01:57:33;51.55;;;17.77;;
57593;SDS011;43423;46.510;6.686;2022-12-18T02:00:00;48.08;;;17.77;;
57593;SDS011;43423;46.510;6.686;2022-12-18T02:02:30;51.67;;;18.00;;
57593;SDS011;43423;46.510;6.686;2022-12-18T02:04:56;56.80;;;19.10;;
57593;SDS011;43423;46.510;6.686;2022-12-18T02:07:40;56.67;;;18.45;;
57593;SDS011;43423;46.510;6.686;2022-12-18T02:10:32;48.65;;;17.23;;
57593;SDS011;43423;46.510;6.686;2022-12-18T02:13:19;52.67;;;18.25;;
57593;SDS011;43423;46.510;6.686;2022-12-18T02:19:00;51.45;;;17.65;;
57593;SDS011;43423;46.510;6.686;2022-12-18T02:24:27;53.47;;;18.45;;
57593;SDS011;43423;46.510;6.686;2022-12-18T02:26:55;47.17;;;18.70;;
57593;SDS011;43423;46.510;6.686;2022-12-18T02:29:32;46.83;;;16.80;;
57593;SDS011;43423;46.510;6.686;2022-12-18T02:32:06;48.45;;;18.33;;
57593;SDS011;43423;46.510;6.686;2022-12-18T02:34:37;51.25;;;19.33;;
57593;SDS011;43423;46.510;6.686;2022-12-18T02:37:04;55.30;;;18.75;;
57593;SDS011;43423;46.510;6.686;2022-12-18T02:39:36;45.63;;;17.98;;
57593;SDS011;43423;46.510;6.686;2022-12-18T02:42:02;49.42;;;18.20;;
57593;SDS011;43423;46.510;6.686;2022-12-18T02:44:49;49.22;;;17.60;;
57593;SDS011;43423;46.510;6.686;2022-12-18T02:47:16;57.95;;;18.33;;
57593;SDS011;43423;46.510;6.686;2022-12-18T02:55:20;52.15;;;18.77;;
57593;SDS011;43423;46.510;6.686;2022-12-18T02:58:03;50.83;;;18.48;;
57593;SDS011;43423;46.510;6.686;2022-12-18T03:03:18;47.30;;;17.65;;
57593;SDS011;43423;46.510;6.686;2022-12-18T03:05:58;48.95;;;17.50;;
57593;SDS011;43423;46.510;6.686;2022-12-18T03:08:30;56.35;;;18.05;;
57593;SDS011;43423;46.510;6.686;2022-12-18T03:11:08;43.30;;;17.67;;
57593;SDS011;43423;46.510;6.686;2022-12-18T03:13:37;47.03;;;16.55;;
57593;SDS011;43423;46.510;6.686;2022-12-18T03:16:07;44.72;;;16.15;;
57593;SDS011;43423;46.510;6.686;2022-12-18T03:18:42;42.88;;;18.00;;
57593;SDS011;43423;46.510;6.686;2022-12-18T03:21:13;49.75;;;18.10;;
57593;SDS011;43423;46.510;6.686;2022-12-18T03:23:43;52.50;;;17.48;;
57593;SDS011;43423;46.510;6.686;2022-12-18T03:26:12;48.65;;;17.85;;
57593;SDS011;43423;46.510;6.686;2022-12-18T03:28:44;42.38;;;16.67;;
57593;SDS011;43423;46.510;6.686;2022-12-18T03:31:15;48.60;;;16.70;;
57593;SDS011;43423;46.510;6.686;2022-12-18T03:33:53;51.72;;;18.08;;
57593;SDS011;43423;46.510;6.686;2022-12-18T03:36:20;49.22;;;19.20;;
57593;SDS011;43423;46.510;6.686;2022-12-18T03:38:46;43.92;;;17.30;;
57593;SDS011;43423;46.510;6.686;2022-12-18T03:46:51;46.17;;;16.85;;
57593;SDS011;43423;46.510;6.686;2022-12-18T03:52:20;48.80;;;17.60;;
57593;SDS011;43423;46.510;6.686;2022-12-18T03:54:51;47.42;;;17.55;;
57593;SDS011;43423;46.510;6.686;2022-12-18T03:57:19;46.45;;;17.85;;
57593;SDS011;43423;46.510;6.686;2022-12-18T03:59:49;50.20;;;17.48;;
57593;SDS011;43423;46.510;6.686;2022-12-18T04:02:19;53.33;;;18.48;;
57593;SDS011;43423;46.510;6.686;2022-12-18T04:04:47;48.47;;;18.13;;
57593;SDS011;43423;46.510;6.686;2022-12-18T04:07:17;46.22;;;16.83;;
57593;SDS011;43423;46.510;6.686;2022-12-18T04:09:44;47.97;;;17.83;;
57593;SDS011;43423;46.510;6.686;2022-12-18T04:12:11;51.35;;;17.52;;
57593;SDS011;43423;46.510;6.686;2022-12-18T04:14:36;44.50;;;17.75;;
57593;SDS011;43423;46.510;6.686;2022-12-18T04:17:02;44.35;;;16.83;;
57593;SDS011;43423;46.510;6.686;2022-12-18T04:19:28;48.33;;;17.00;;
57593;SDS011;43423;46.510;6.686;2022-12-18T04:21:54;47.25;;;17.13;;
57593;SDS011;43423;46.510;6.686;2022-12-18T04:24:19;47.30;;;17.10;;
57593;SDS011;43423;46.510;6.686;2022-12-18T04:26:45;42.47;;;16.35;;
57593;SDS011;43423;46.510;6.686;2022-12-18T04:29:11;54.08;;;19.50;;
57593;SDS011;43423;46.510;6.686;2022-12-18T04:31:37;47.53;;;17.25;;
57593;SDS011;43423;46.510;6.686;2022-12-18T04:34:02;42.03;;;16.98;;
57593;SDS011;43423;46.510;6.686;2022-12-18T04:36:28;47.05;;;17.63;;
57593;SDS011;43423;46.510;6.686;2022-12-18T04:38:54;42.03;;;16.23;;
57593;SDS011;43423;46.510;6.686;2022-12-18T04:41:20;43.13;;;18.27;;
57593;SDS011;43423;46.510;6.686;2022-12-18T04:43:45;43.63;;;16.42;;
57593;SDS011;43423;46.510;6.686;2022-12-18T04:46:11;42.47;;;17.63;;
57593;SDS011;43423;46.510;6.686;2022-12-18T04:48:37;41.78;;;16.98;;
57593;SDS011;43423;46.510;6.686;2022-12-18T04:51:04;43.67;;;16.40;;
57593;SDS011;43423;46.510;6.686;2022-12-18T04:53:30;44.35;;;16.25;;
57593;SDS011;43423;46.510;6.686;2022-12-18T04:56:03;47.78;;;16.90;;
57593;SDS011;43423;46.510;6.686;2022-12-18T04:58:29;40.08;;;15.98;;
57593;SDS011;43423;46.510;6.686;2022-12-18T05:00:54;37.80;;;15.00;;
57593;SDS011;43423;46.510;6.686;2022-12-18T05:03:20;43.83;;;16.10;;
57593;SDS011;43423;46.510;6.686;2022-12-18T05:05:49;45.10;;;17.25;;
57593;SDS011;43423;46.510;6.686;2022-12-18T05:08:15;47.45;;;16.27;;
57593;SDS011;43423;46.510;6.686;2022-12-18T05:10:41;37.88;;;15.27;;
57593;SDS011;43423;46.510;6.686;2022-12-18T05:13:06;39.50;;;15.25;;
57593;SDS011;43423;46.510;6.686;2022-12-18T05:15:32;41.38;;;15.88;;
57593;SDS011;43423;46.510;6.686;2022-12-18T05:17:58;43.55;;;16.05;;
57593;SDS011;43423;46.510;6.686;2022-12-18T05:20:25;53.15;;;17.60;;
57593;SDS011;43423;46.510;6.686;2022-12-18T05:22:51;42.40;;;17.05;;
57593;SDS011;43423;46.510;6.686;2022-12-18T05:25:17;49.85;;;17.70;;
57593;SDS011;43423;46.510;6.686;2022-12-18T05:27:43;46.22;;;17.02;;
57593;SDS011;43423;46.510;6.686;2022-12-18T05:30:09;40.67;;;16.85;;
57593;SDS011;43423;46.510;6.686;2022-12-18T05:32:35;42.97;;;16.30;;
57593;SDS011;43423;46.510;6.686;2022-12-18T05:35:01;44.55;;;16.63;;
57593;SDS011;43423;46.510;6.686;2022-12-18T05:37:26;42.60;;;16.08;;
57593;SDS011;43423;46.510;6.686;2022-12-18T05:39:52;34.30;;;15.02;;
57593;SDS011;43423;46.510;6.686;2022-12-18T05:42:17;45.80;;;16.48;;
57593;SDS011;43423;46.510;6.686;2022-12-18T05:44:43;43.15;;;16.48;;
57593;SDS011;43423;46.510;6.686;2022-12-18T05:47:09;43.80;;;15.75;;
57593;SDS011;43423;46.510;6.686;2022-12-18T05:49:35;46.35;;;17.02;;
57593;SDS011;43423;46.510;6.686;2022-12-18T05:52:01;46.28;;;17.52;;
57593;SDS011;43423;46.510;6.686;2022-12-18T05:54:27;38.30;;;16.52;;
57593;SDS011;43423;46.510;6.686;2022-12-18T05:56:53;45.30;;;15.82;;
57593;SDS011;43423;46.510;6.686;2022-12-18T05:59:19;41.72;;;17.52;;
57593;SDS011;43423;46.510;6.686;2022-12-18T06:01:45;41.42;;;16.50;;
57593;SDS011;43423;46.510;6.686;2022-12-18T06:04:11;45.05;;;15.75;;
57593;SDS011;43423;46.510;6.686;2022-12-18T06:06:37;50.92;;;16.08;;
57593;SDS011;43423;46.510;6.686;2022-12-18T06:09:03;39.22;;;16.20;;
57593;SDS011;43423;46.510;6.686;2022-12-18T06:11:33;41.08;;;16.60;;
57593;SDS011;43423;46.510;6.686;2022-12-18T06:14:00;39.08;;;16.20;;
57593;SDS011;43423;46.510;6.686;2022-12-18T06:16:29;40.25;;;16.55;;
57593;SDS011;43423;46.510;6.686;2022-12-18T06:18:56;42.15;;;17.27;;
57593;SDS011;43423;46.510;6.686;2022-12-18T06:21:22;42.03;;;16.45;;
57593;SDS011;43423;46.510;6.686;2022-12-18T06:23:47;46.80;;;17.25;;
57593;SDS011;43423;46.510;6.686;2022-12-18T06:26:13;44.88;;;17.98;;
57593;SDS011;43423;46.510;6.686;2022-12-18T06:28:39;41.75;;;16.02;;
57593;SDS011;43423;46.510;6.686;2022-12-18T06:31:05;43.92;;;16.45;;
57593;SDS011;43423;46.510;6.686;2022-12-18T06:33:32;42.00;;;15.20;;
57593;SDS011;43423;46.510;6.686;2022-12-18T06:36:01;45.67;;;16.15;;
57593;SDS011;43423;46.510;6.686;2022-12-18T06:40:54;36.28;;;15.15;;
57593;SDS011;43423;46.510;6.686;2022-12-18T06:43:20;46.03;;;16.35;;
57593;SDS011;43423;46.510;6.686;2022-12-18T06:45:45;46.13;;;16.02;;
57593;SDS011;43423;46.510;6.686;2022-12-18T06:48:14;39.90;;;14.82;;
57593;SDS011;43423;46.510;6.686;2022-12-18T06:50:42;41.17;;;16.00;;
57593;SDS011;43423;46.510;6.686;2022-12-18T06:53:08;44.17;;;16.63;;
57593;SDS011;43423;46.510;6.686;2022-12-18T06:55:33;45.05;;;18.02;;
57593;SDS011;43423;46.510;6.686;2022-12-18T06:57:59;39.75;;;16.15;;
57593;SDS011;43423;46.510;6.686;2022-12-18T07:00:24;44.47;;;16.67;;
57593;SDS011;43423;46.510;6.686;2022-12-18T07:02:50;43.30;;;16.08;;
57593;SDS011;43423;46.510;6.686;2022-12-18T07:05:15;44.30;;;16.20;;
57593;SDS011;43423;46.510;6.686;2022-12-18T07:07:41;42.70;;;16.35;;
57593;SDS011;43423;46.510;6.686;2022-12-18T07:10:07;41.65;;;16.00;;
57593;SDS011;43423;46.510;6.686;2022-12-18T07:12:33;39.53;;;15.60;;
57593;SDS011;43423;46.510;6.686;2022-12-18T07:14:58;49.90;;;17.30;;
57593;SDS011;43423;46.510;6.686;2022-12-18T07:17:24;46.67;;;16.08;;
57593;SDS011;43423;46.510;6.686;2022-12-18T07:19:49;42.30;;;16.08;;
57593;SDS011;43423;46.510;6.686;2022-12-18T07:22:15;45.47;;;15.88;;
57593;SDS011;43423;46.510;6.686;2022-12-18T07:24:40;42.53;;;16.27;;
57593;SDS011;43423;46.510;6.686;2022-12-18T07:27:06;38.15;;;15.57;;
57593;SDS011;43423;46.510;6.686;2022-12-18T07:29:31;42.70;;;16.13;;
57593;SDS011;43423;46.510;6.686;2022-12-18T07:31:57;43.92;;;17.10;;
57593;SDS011;43423;46.510;6.686;2022-12-18T07:34:23;42.58;;;15.90;;
57593;SDS011;43423;46.510;6.686;2022-12-18T07:36:48;39.45;;;15.95;;
57593;SDS011;43423;46.510;6.686;2022-12-18T07:39:14;39.13;;;15.77;;
57593;SDS011;43423;46.510;6.686;2022-12-18T07:41:39;42.20;;;15.73;;
57593;SDS011;43423;46.510;6.686;2022-12-18T07:44:25;42.17;;;14.95;;
57593;SDS011;43423;46.510;6.686;2022-12-18T07:46:51;37.45;;;14.73;;
57593;SDS011;43423;46.510;6.686;2022-12-18T07:49:16;43.25;;;15.93;;
57593;SDS011;43423;46.510;6.686;2022-12-18T07:51:42;40.72;;;15.68;;
57593;SDS011;43423;46.510;6.686;2022-12-18T07:54:07;38.05;;;15.70;;
57593;SDS011;43423;46.510;6.686;2022-12-18T07:56:33;42.08;;;16.65;;
57593;SDS011;43423;46.510;6.686;2022-12-18T07:58:58;38.30;;;15.60;;
57593;SDS011;43423;46.510;6.686;2022-12-18T08:01:24;43.83;;;17.08;;
57593;SDS011;43423;46.510;6.686;2022-12-18T08:03:50;46.15;;;17.23;;
57593;SDS011;43423;46.510;6.686;2022-12-18T08:06:16;41.72;;;15.95;;
57593;SDS011;43423;46.510;6.686;2022-12-18T08:08:41;38.25;;;15.25;;
57593;SDS011;43423;46.510;6.686;2022-12-18T08:11:07;40.78;;;16.23;;
57593;SDS011;43423;46.510;6.686;2022-12-18T08:13:33;39.60;;;15.40;;
57593;SDS011;43423;46.510;6.686;2022-12-18T08:16:02;41.00;;;14.80;;
57593;SDS011;43423;46.510;6.686;2022-12-18T08:20:57;36.25;;;13.90;;
57593;SDS011;43423;46.510;6.686;2022-12-18T08:23:22;38.97;;;14.73;;
57593;SDS011;43423;46.510;6.686;2022-12-18T08:25:48;37.85;;;14.40;;
57593;SDS011;43423;46.510;6.686;2022-12-18T08:28:13;34.05;;;14.52;;
57593;SDS011;43423;46.510;6.686;2022-12-18T08:30:39;36.70;;;15.07;;
57593;SDS011;43423;46.510;6.686;2022-12-18T08:33:04;37.88;;;14.77;;
57593;SDS011;43423;46.510;6.686;2022-12-18T08:35:34;39.25;;;15.75;;
57593;SDS011;43423;46.510;6.686;2022-12-18T08:38:00;43.65;;;17.55;;
57593;SDS011;43423;46.510;6.686;2022-12-18T08:40:25;40.83;;;16.20;;
57593;SDS011;43423;46.510;6.686;2022-12-18T08:42:51;39.30;;;15.55;;
57593;SDS011;43423;46.510;6.686;2022-12-18T08:45:35;35.22;;;13.88;;
57593;SDS011;43423;46.510;6.686;2022-12-18T08:48:01;39.53;;;15.52;;
57593;SDS011;43423;46.510;6.686;2022-12-18T08:50:26;39.38;;;16.17;;
57593;SDS011;43423;46.510;6.686;2022-12-18T08:52:52;39.78;;;15.02;;
57593;SDS011;43423;46.510;6.686;2022-12-18T08:55:18;35.92;;;14.80;;
57593;SDS011;43423;46.510;6.686;2022-12-18T08:57:47;38.83;;;16.60;;
57593;SDS011;43423;46.510;6.686;2022-12-18T09:00:14;39.40;;;15.38;;
57593;SDS011;43423;46.510;6.686;2022-12-18T09:02:40;40.90;;;15.52;;
57593;SDS011;43423;46.510;6.686;2022-12-18T09:05:06;34.40;;;14.93;;
57593;SDS011;43423;46.510;6.686;2022-12-18T09:07:32;36.35;;;14.98;;
57593;SDS011;43423;46.510;6.686;2022-12-18T09:09:57;39.83;;;14.70;;
57593;SDS011;43423;46.510;6.686;2022-12-18T09:12:23;37.78;;;14.15;;
57593;SDS011;43423;46.510;6.686;2022-12-18T09:14:49;37.58;;;16.00;;
57593;SDS011;43423;46.510;6.686;2022-12-18T09:17:14;36.30;;;14.82;;
57593;SDS011;43423;46.510;6.686;2022-12-18T09:19:40;36.03;;;14.43;;
57593;SDS011;43423;46.510;6.686;2022-12-18T09:22:05;37.00;;;15.52;;
57593;SDS011;43423;46.510;6.686;2022-12-18T09:24:31;35.22;;;13.82;;
57593;SDS011;43423;46.510;6.686;2022-12-18T09:26:57;40.80;;;15.13;;
57593;SDS011;43423;46.510;6.686;2022-12-18T09:29:23;38.58;;;15.88;;
57593;SDS011;43423;46.510;6.686;2022-12-18T09:31:48;37.53;;;15.63;;
57593;SDS011;43423;46.510;6.686;2022-12-18T09:34:15;41.60;;;14.73;;
57593;SDS011;43423;46.510;6.686;2022-12-18T09:36:40;35.13;;;14.90;;
57593;SDS011;43423;46.510;6.686;2022-12-18T09:39:06;36.50;;;13.98;;
57593;SDS011;43423;46.510;6.686;2022-12-18T09:44:18;34.25;;;13.98;;
57593;SDS011;43423;46.510;6.686;2022-12-18T09:47:30;36.53;;;14.80;;
57593;SDS011;43423;46.510;6.686;2022-12-18T09:49:44;36.08;;;15.60;;
57593;SDS011;43423;46.510;6.686;2022-12-18T09:55:03;32.50;;;14.35;;
57593;SDS011;43423;46.510;6.686;2022-12-18T09:57:37;34.75;;;15.60;;
57593;SDS011;43423;46.510;6.686;2022-12-18T10:00:18;42.38;;;16.05;;
57593;SDS011;43423;46.510;6.686;2022-12-18T10:02:45;37.10;;;15.52;;
57593;SDS011;43423;46.510;6.686;2022-12-18T10:05:16;39.25;;;14.93;;
57593;SDS011;43423;46.510;6.686;2022-12-18T10:07:57;40.08;;;15.98;;
57593;SDS011;43423;46.510;6.686;2022-12-18T10:16:17;40.92;;;14.52;;
57593;SDS011;43423;46.510;6.686;2022-12-18T10:18:55;37.42;;;14.90;;
57593;SDS011;43423;46.510;6.686;2022-12-18T10:21:28;34.55;;;14.63;;
57593;SDS011;43423;46.510;6.686;2022-12-18T10:26:24;33.13;;;14.75;;
57593;SDS011;43423;46.510;6.686;2022-12-18T10:28:50;37.97;;;15.23;;
57593;SDS011;43423;46.510;6.686;2022-12-18T10:31:17;37.65;;;15.57;;
57593;SDS011;43423;46.510;6.686;2022-12-18T10:33:48;39.78;;;15.88;;
57593;SDS011;43423;46.510;6.686;2022-12-18T10:36:14;38.40;;;15.45;;
57593;SDS011;43423;46.510;6.686;2022-12-18T10:38:39;34.70;;;15.50;;
57593;SDS011;43423;46.510;6.686;2022-12-18T10:41:13;34.45;;;14.40;;
57593;SDS011;43423;46.510;6.686;2022-12-18T10:46:46;35.90;;;15.68;;
57593;SDS011;43423;46.510;6.686;2022-12-18T10:49:18;40.28;;;16.20;;
57593;SDS011;43423;46.510;6.686;2022-12-18T10:51:47;37.42;;;15.00;;
57593;SDS011;43423;46.510;6.686;2022-12-18T10:54:14;37.10;;;14.65;;
57593;SDS011;43423;46.510;6.686;2022-12-18T10:56:43;34.40;;;13.93;;
57593;SDS011;43423;46.510;6.686;2022-12-18T10:59:10;32.50;;;13.60;;
57593;SDS011;43423;46.510;6.686;2022-12-18T11:01:53;37.15;;;15.25;;
57593;SDS011;43423;46.510;6.686;2022-12-18T11:04:24;36.97;;;14.63;;
57593;SDS011;43423;46.510;6.686;2022-12-18T11:09:25;34.80;;;14.95;;
57593;SDS011;43423;46.510;6.686;2022-12-18T11:11:58;34.92;;;15.68;;
57593;SDS011;43423;46.510;6.686;2022-12-18T11:16:53;33.80;;;15.05;;
57593;SDS011;43423;46.510;6.686;2022-12-18T11:22:25;37.65;;;15.65;;
57593;SDS011;43423;46.510;6.686;2022-12-18T11:25:02;40.53;;;15.73;;
57593;SDS011;43423;46.510;6.686;2022-12-18T11:27:32;36.10;;;15.48;;
57593;SDS011;43423;46.510;6.686;2022-12-18T11:30:20;33.85;;;15.10;;
57593;SDS011;43423;46.510;6.686;2022-12-18T11:35:35;40.15;;;16.33;;
57593;SDS011;43423;46.510;6.686;2022-12-18T11:38:10;40.53;;;14.68;;
57593;SDS011;43423;46.510;6.686;2022-12-18T11:40:37;37.30;;;14.38;;
57593;SDS011;43423;46.510;6.686;2022-12-18T11:43:10;37.15;;;15.52;;
57593;SDS011;43423;46.510;6.686;2022-12-18T11:45:43;37.38;;;16.00;;
57593;SDS011;43423;46.510;6.686;2022-12-18T11:48:22;36.00;;;14.93;;
57593;SDS011;43423;46.510;6.686;2022-12-18T11:50:56;39.90;;;15.50;;
57593;SDS011;43423;46.510;6.686;2022-12-18T11:53:25;40.90;;;15.68;;
57593;SDS011;43423;46.510;6.686;2022-12-18T12:06:56;37.25;;;14.82;;
57593;SDS011;43423;46.510;6.686;2022-12-18T12:18:00;35.00;;;14.15;;
57593;SDS011;43423;46.510;6.686;2022-12-18T12:25:48;37.92;;;14.93;;
57593;SDS011;43423;46.510;6.686;2022-12-18T12:39:12;36.38;;;14.98;;
57593;SDS011;43423;46.510;6.686;2022-12-18T12:41:41;37.00;;;15.52;;
57593;SDS011;43423;46.510;6.686;2022-12-18T12:44:30;33.22;;;14.68;;
57593;SDS011;43423;46.510;6.686;2022-12-18T12:47:11;37.67;;;16.02;;
57593;SDS011;43423;46.510;6.686;2022-12-18T12:49:56;32.72;;;13.48;;
57593;SDS011;43423;46.510;6.686;2022-12-18T12:52:32;36.97;;;14.73;;
57593;SDS011;43423;46.510;6.686;2022-12-18T12:55:03;35.72;;;15.23;;
57593;SDS011;43423;46.510;6.686;2022-12-18T12:57:40;34.13;;;15.18;;
57593;SDS011;43423;46.510;6.686;2022-12-18T13:02:52;33.90;;;14.75;;
57593;SDS011;43423;46.510;6.686;2022-12-18T13:05:41;36.35;;;15.23;;
57593;SDS011;43423;46.510;6.686;2022-12-18T13:08:25;36.55;;;15.55;;
57593;SDS011;43423;46.510;6.686;2022-12-18T13:10:54;29.23;;;13.68;;
57593;SDS011;43423;46.510;6.686;2022-12-18T13:13:51;33.17;;;15.00;;
57593;SDS011;43423;46.510;6.686;2022-12-18T13:16:20;32.13;;;14.05;;
57593;SDS011;43423;46.510;6.686;2022-12-18T13:18:50;31.60;;;14.32;;
57593;SDS011;43423;46.510;6.686;2022-12-18T13:21:25;26.90;;;13.10;;
57593;SDS011;43423;46.510;6.686;2022-12-18T13:23:56;32.75;;;14.85;;
57593;SDS011;43423;46.510;6.686;2022-12-18T13:26:39;35.15;;;15.45;;
57593;SDS011;43423;46.510;6.686;2022-12-18T13:29:04;31.10;;;14.35;;
57593;SDS011;43423;46.510;6.686;2022-12-18T13:36:46;32.03;;;14.55;;
57593;SDS011;43423;46.510;6.686;2022-12-18T13:41:47;31.13;;;13.98;;
57593;SDS011;43423;46.510;6.686;2022-12-18T13:44:58;31.60;;;14.27;;
57593;SDS011;43423;46.510;6.686;2022-12-18T13:47:31;32.10;;;15.00;;
57593;SDS011;43423;46.510;6.686;2022-12-18T13:49:59;37.60;;;15.50;;
57593;SDS011;43423;46.510;6.686;2022-12-18T13:52:26;32.55;;;14.60;;
57593;SDS011;43423;46.510;6.686;2022-12-18T13:54:59;34.03;;;15.73;;
57593;SDS011;43423;46.510;6.686;2022-12-18T13:57:34;32.67;;;15.02;;
57593;SDS011;43423;46.510;6.686;2022-12-18T14:02:59;31.25;;;14.75;;
57593;SDS011;43423;46.510;6.686;2022-12-18T14:05:27;32.10;;;15.32;;
57593;SDS011;43423;46.510;6.686;2022-12-18T14:07:55;35.08;;;15.35;;
57593;SDS011;43423;46.510;6.686;2022-12-18T14:10:33;30.75;;;14.75;;
57593;SDS011;43423;46.510;6.686;2022-12-18T14:13:02;32.60;;;15.05;;
57593;SDS011;43423;46.510;6.686;2022-12-18T14:15:32;33.25;;;14.18;;
57593;SDS011;43423;46.510;6.686;2022-12-18T14:20:45;31.25;;;14.13;;
57593;SDS011;43423;46.510;6.686;2022-12-18T14:25:55;30.33;;;14.48;;
57593;SDS011;43423;46.510;6.686;2022-12-18T14:28:21;33.25;;;14.18;;
57593;SDS011;43423;46.510;6.686;2022-12-18T14:30:50;30.95;;;13.93;;
57593;SDS011;43423;46.510;6.686;2022-12-18T14:33:20;33.78;;;14.30;;
57593;SDS011;43423;46.510;6.686;2022-12-18T14:36:13;32.08;;;14.13;;
57593;SDS011;43423;46.510;6.686;2022-12-18T14:38:40;33.65;;;14.65;;
57593;SDS011;43423;46.510;6.686;2022-12-18T14:41:06;29.73;;;13.23;;
57593;SDS011;43423;46.510;6.686;2022-12-18T14:43:37;29.25;;;13.55;;
57593;SDS011;43423;46.510;6.686;2022-12-18T14:46:05;34.67;;;14.45;;
57593;SDS011;43423;46.510;6.686;2022-12-18T14:48:50;33.72;;;14.52;;
57593;SDS011;43423;46.510;6.686;2022-12-18T14:51:26;34.22;;;14.70;;
57593;SDS011;43423;46.510;6.686;2022-12-18T14:54:03;37.03;;;15.18;;
57593;SDS011;43423;46.510;6.686;2022-12-18T14:56:34;31.80;;;14.52;;
57593;SDS011;43423;46.510;6.686;2022-12-18T15:02:04;34.72;;;13.63;;
57593;SDS011;43423;46.510;6.686;2022-12-18T15:05:02;37.58;;;15.55;;
57593;SDS011;43423;46.510;6.686;2022-12-18T15:17:59;36.47;;;14.95;;
57593;SDS011;43423;46.510;6.686;2022-12-18T15:20:25;31.65;;;14.50;;
57593;SDS011;43423;46.510;6.686;2022-12-18T15:22:51;35.63;;;15.30;;
57593;SDS011;43423;46.510;6.686;2022-12-18T15:25:23;33.65;;;14.93;;
57593;SDS011;43423;46.510;6.686;2022-12-18T15:27:51;35.92;;;15.73;;
57593;SDS011;43423;46.510;6.686;2022-12-18T15:30:19;40.35;;;16.33;;
57593;SDS011;43423;46.510;6.686;2022-12-18T15:35:21;36.65;;;14.88;;
57593;SDS011;43423;46.510;6.686;2022-12-18T15:37:48;37.00;;;14.98;;
57593;SDS011;43423;46.510;6.686;2022-12-18T15:40:22;33.33;;;15.35;;
57593;SDS011;43423;46.510;6.686;2022-12-18T15:42:50;37.05;;;16.15;;
57593;SDS011;43423;46.510;6.686;2022-12-18T15:45:37;36.28;;;16.00;;
57593;SDS011;43423;46.510;6.686;2022-12-18T15:48:20;38.97;;;16.40;;
57593;SDS011;43423;46.510;6.686;2022-12-18T15:50:47;35.25;;;15.00;;
57593;SDS011;43423;46.510;6.686;2022-12-18T15:53:14;35.47;;;15.55;;
57593;SDS011;43423;46.510;6.686;2022-12-18T15:55:39;39.22;;;17.00;;
57593;SDS011;43423;46.510;6.686;2022-12-18T15:58:23;40.28;;;15.90;;
57593;SDS011;43423;46.510;6.686;2022-12-18T16:00:49;36.35;;;15.43;;
57593;SDS011;43423;46.510;6.686;2022-12-18T16:03:14;40.83;;;16.90;;
57593;SDS011;43423;46.510;6.686;2022-12-18T16:05:40;36.90;;;16.83;;
57593;SDS011;43423;46.510;6.686;2022-12-18T16:08:06;40.00;;;15.80;;
57593;SDS011;43423;46.510;6.686;2022-12-18T16:10:31;36.50;;;15.77;;
57593;SDS011;43423;46.510;6.686;2022-12-18T16:12:57;39.78;;;15.82;;
57593;SDS011;43423;46.510;6.686;2022-12-18T16:15:22;44.88;;;17.25;;
57593;SDS011;43423;46.510;6.686;2022-12-18T16:17:48;35.22;;;16.50;;
57593;SDS011;43423;46.510;6.686;2022-12-18T16:20:18;47.50;;;18.90;;
57593;SDS011;43423;46.510;6.686;2022-12-18T16:22:46;47.33;;;21.65;;
57593;SDS011;43423;46.510;6.686;2022-12-18T16:31:12;44.75;;;18.67;;
57593;SDS011;43423;46.510;6.686;2022-12-18T16:33:38;47.65;;;18.48;;
57593;SDS011;43423;46.510;6.686;2022-12-18T16:36:04;42.45;;;17.00;;
57593;SDS011;43423;46.510;6.686;2022-12-18T16:38:29;44.38;;;18.33;;
57593;SDS011;43423;46.510;6.686;2022-12-18T16:40:55;41.17;;;17.23;;
57593;SDS011;43423;46.510;6.686;2022-12-18T16:43:53;43.80;;;17.48;;
57593;SDS011;43423;46.510;6.686;2022-12-18T16:46:19;56.58;;;22.65;;
57593;SDS011;43423;46.510;6.686;2022-12-18T16:48:44;61.67;;;26.67;;
57593;SDS011;43423;46.510;6.686;2022-12-18T16:51:10;61.30;;;27.00;;
57593;SDS011;43423;46.510;6.686;2022-12-18T16:53:36;54.13;;;23.55;;